Time;durP1;ratioP1;P1;durP2;ratioP2;P2;SDS_P1;SDS_P2;PMS_P1;PMS_P2;Temp;Humidity;BMP_temperature;BMP_pressure;BME280_temperature;BME280_humidity;BME280_pressure;Samples;Min_cycle;Max_cycle;Signal;HPM_P1;HPM_P2
2022/11/12 00:02:21;;;;;;;;;;;5.50;99.90;;;;;;5066071;28;19927;-77
2022/11/12 00:05:09;;;;;;;;;;;5.50;99.90;;;;;;5050813;28;20015;-77
2022/11/12 00:07:54;;;;;;;;;;;5.50;99.90;;;;;;5056156;28;20098;-76
2022/11/12 00:10:40;;;;;;;;;;;5.40;99.90;;;;;;5058745;28;20367;-76
2022/11/12 00:13:25;;;;;;;;;;;5.40;99.90;;;;;;5054336;28;20403;-77
2022/11/12 00:16:11;;;;;;;;;;;5.40;99.90;;;;;;5051705;28;20023;-77
2022/11/12 00:18:57;;;;;;;;;;;5.40;99.90;;;;;;5065616;28;19943;-76
2022/11/12 00:21:44;;;;;;;;;;;5.30;99.90;;;;;;5054946;28;20551;-77
2022/11/12 00:24:29;;;;;;;;;;;5.50;99.90;;;;;;5051490;28;19932;-77
2022/11/12 00:27:15;;;;;;;;;;;5.30;99.90;;;;;;5063456;28;20407;-77
2022/11/12 00:30:01;;;;;;;;;;;5.20;99.90;;;;;;5060767;28;19980;-78
2022/11/12 00:32:47;;;;;;;;;;;5.20;99.90;;;;;;5053706;28;19927;-79
2022/11/12 00:35:33;;;;;;;;;;;5.30;99.90;;;;;;5061622;28;20007;-80
2022/11/12 00:38:20;;;;;;;;;;;5.20;99.90;;;;;;5053156;28;19935;-80
2022/11/12 00:41:06;;;;;;;;;;;5.20;99.90;;;;;;5052504;28;19927;-78
2022/11/12 00:43:52;;;;;;;;;;;5.20;99.90;;;;;;5046714;28;19931;-79
2022/11/12 00:46:38;;;;;;;;;;;;;;;;;;5051270;28;19931;-80
2022/11/12 00:49:23;;;;;;;;;;;5.20;99.90;;;;;;5051660;28;19932;-81
2022/11/12 00:52:09;;;;;;;;;;;5.20;99.90;;;;;;5052270;28;19931;-82
2022/11/12 00:54:55;;;;;;;;;;;5.10;99.90;;;;;;5050466;28;19954;-82
2022/11/12 00:57:41;;;;;;;;;;;5.20;99.90;;;;;;5058695;28;19998;-81
2022/11/12 01:00:26;;;;;;;;;;;5.20;99.90;;;;;;5054443;28;19950;-81
2022/11/12 01:03:11;;;;;;;;;;;5.20;99.90;;;;;;5060390;28;20012;-81
2022/11/12 01:06:01;;;;;;;;;;;5.10;99.90;;;;;;5053658;28;19940;-81
2022/11/12 01:08:47;;;;;;;;;;;5.10;99.90;;;;;;5059719;28;19973;-81
2022/11/12 01:11:33;;;;;;;;;;;5.10;99.90;;;;;;5053136;28;19946;-79
2022/11/12 01:14:19;;;;;;;;;;;5.10;99.90;;;;;;5058201;28;19994;-78
2022/11/12 01:17:05;;;;;;;;;;;5.10;99.90;;;;;;5053414;28;20013;-81
2022/11/12 01:19:50;;;;;;;;;;;5.00;99.90;;;;;;5054071;28;19927;-83
2022/11/12 01:22:36;;;;;;;;;;;5.00;99.90;;;;;;5054899;28;19927;-82
2022/11/12 01:25:21;;;;;;;;;;;5.00;99.90;;;;;;5047987;28;20391;-81
2022/11/12 01:28:08;;;;;;;;;;;5.00;99.90;;;;;;5056884;28;19928;-79
2022/11/12 01:30:54;;;;;;;;;;;5.00;99.90;;;;;;5051995;28;19943;-82
2022/11/12 01:33:39;;;;;;;;;;;5.00;99.90;;;;;;5050905;28;19931;-81
2022/11/12 01:36:25;;;;;;;;;;;4.90;99.90;;;;;;5058776;28;19934;-80
2022/11/12 01:39:11;;;;;;;;;;;4.90;99.90;;;;;;5049659;28;19936;-82
2022/11/12 01:41:56;;;;;;;;;;;4.90;99.90;;;;;;5052558;28;20139;-82
2022/11/12 01:44:44;;;;;;;;;;;4.90;99.90;;;;;;5052163;28;19931;-83
2022/11/12 01:47:31;;;;;;;;;;;4.80;99.90;;;;;;5059957;28;19931;-82
2022/11/12 01:50:21;;;;;;;;;;;4.90;99.90;;;;;;5056758;28;20474;-81
2022/11/12 01:53:08;;;;;;;;;;;4.90;99.90;;;;;;5055007;28;20057;-80
2022/11/12 01:55:54;;;;;;;;;;;4.80;99.90;;;;;;5055255;28;20006;-81
2022/11/12 01:58:41;;;;;;;;;;;4.90;99.90;;;;;;5062151;28;20395;-79
2022/11/12 02:01:28;;;;;;;;;;;4.80;99.90;;;;;;5053665;28;19982;-78
2022/11/12 02:04:14;;;;;;;;;;;4.80;99.90;;;;;;5046820;28;19947;-79
2022/11/12 02:07:00;;;;;;;;;;;4.80;99.90;;;;;;5051365;28;19927;-80
2022/11/12 02:09:46;;;;;;;;;;;4.90;99.90;;;;;;5050957;28;19943;-79
2022/11/12 02:15:35;;;;;;;;;;;4.80;99.90;;;;;;5065098;28;20170;-78
2022/11/12 02:18:21;;;;;;;;;;;4.80;99.90;;;;;;5067090;28;19936;-79
2022/11/12 02:21:08;;;;;;;;;;;4.80;99.90;;;;;;5058050;28;19931;-79
2022/11/12 02:23:59;;;;;;;;;;;4.80;99.90;;;;;;5064574;28;20286;-77
2022/11/12 02:26:46;;;;;;;;;;;4.80;99.90;;;;;;5065675;28;19931;-79
2022/11/12 02:29:32;;;;;;;;;;;4.80;99.90;;;;;;5061056;28;19947;-78
2022/11/12 02:32:17;;;;;;;;;;;4.80;99.90;;;;;;5059141;28;20066;-79
2022/11/12 02:35:02;;;;;;;;;;;4.80;99.90;;;;;;5055930;28;19937;-79
2022/11/12 02:37:48;;;;;;;;;;;4.80;99.90;;;;;;5061368;28;19943;-79
2022/11/12 02:40:37;;;;;;;;;;;4.80;99.90;;;;;;5057685;28;19928;-78
2022/11/12 02:43:22;;;;;;;;;;;4.70;99.90;;;;;;5061067;28;19936;-78
2022/11/12 02:46:08;;;;;;;;;;;4.80;99.90;;;;;;5059337;28;20179;-79
2022/11/12 02:48:53;;;;;;;;;;;4.80;99.90;;;;;;5057933;28;20268;-80
2022/11/12 02:51:39;;;;;;;;;;;4.80;99.90;;;;;;5058780;28;20033;-79
2022/11/12 02:54:24;;;;;;;;;;;4.80;99.90;;;;;;5062502;28;19927;-79
2022/11/12 02:57:14;;;;;;;;;;;4.80;99.90;;;;;;5052271;28;20564;-80
2022/11/12 03:00:00;;;;;;;;;;;4.80;99.90;;;;;;5057024;28;20046;-79
2022/11/12 03:02:57;;;;;;;;;;;4.90;99.90;;;;;;5057964;28;19978;-79
2022/11/12 03:05:43;;;;;;;;;;;4.90;99.90;;;;;;5054626;28;19932;-79
2022/11/12 03:08:28;;;;;;;;;;;4.90;99.90;;;;;;5063830;28;19931;-79
2022/11/12 03:11:15;;;;;;;;;;;4.80;99.90;;;;;;5051640;28;19931;-79
2022/11/12 03:14:02;;;;;;;;;;;4.80;99.90;;;;;;5055658;28;19944;-79
2022/11/12 03:16:48;;;;;;;;;;;4.80;99.90;;;;;;5058556;28;19936;-81
2022/11/12 03:19:33;;;;;;;;;;;4.80;99.90;;;;;;5043579;28;20454;-78
2022/11/12 03:22:18;;;;;;;;;;;4.70;99.90;;;;;;5063977;28;20394;-81
2022/11/12 03:25:04;;;;;;;;;;;4.70;99.90;;;;;;5060776;28;19982;-79
2022/11/12 03:27:56;;;;;;;;;;;4.70;99.90;;;;;;5060917;28;20013;-79
2022/11/12 03:30:44;;;;;;;;;;;4.70;99.90;;;;;;5056242;28;19927;-79
2022/11/12 03:33:29;;;;;;;;;;;4.80;99.90;;;;;;5055464;28;19934;-79
2022/11/12 03:36:15;;;;;;;;;;;4.80;99.90;;;;;;5048977;28;19927;-79
2022/11/12 03:39:00;;;;;;;;;;;4.70;99.90;;;;;;5066299;28;20041;-80
2022/11/12 03:41:47;;;;;;;;;;;4.70;99.90;;;;;;5068045;28;19931;-79
2022/11/12 03:44:32;;;;;;;;;;;4.70;99.90;;;;;;5059393;28;19970;-78
2022/11/12 03:47:19;;;;;;;;;;;4.60;99.90;;;;;;5054550;28;19948;-78
2022/11/12 03:50:05;;;;;;;;;;;4.60;99.90;;;;;;5045967;28;19931;-79
2022/11/12 03:52:51;;;;;;;;;;;4.60;99.90;;;;;;5051211;28;19927;-78
2022/11/12 03:55:37;;;;;;;;;;;4.60;99.90;;;;;;5051333;28;19932;-79
2022/11/12 03:58:23;;;;;;;;;;;4.60;99.90;;;;;;5068031;28;20423;-78
2022/11/12 04:01:11;;;;;;;;;;;4.50;99.90;;;;;;5065110;28;19927;-79
2022/11/12 04:03:58;;;;;;;;;;;4.50;99.90;;;;;;5053170;28;20018;-78
2022/11/12 04:13:29;;;;;;;;;;;4.50;99.90;;;;;;5024800;28;20323;-78
2022/11/12 04:22:23;;;;;;;;;;;4.50;99.90;;;;;;5070404;28;19927;-80
2022/11/12 04:28:12;;;;;;;;;;;4.60;99.90;;;;;;5054893;28;19932;-80
2022/11/12 04:30:57;;;;;;;;;;;4.60;99.90;;;;;;5058154;28;19932;-80
2022/11/12 04:33:42;;;;;;;;;;;4.50;99.90;;;;;;5060291;28;19959;-80
2022/11/12 04:36:29;;;;;;;;;;;4.50;99.90;;;;;;5542473;22;19931;-80
2022/11/12 04:39:14;;;;;;;;;;;4.50;99.90;;;;;;5104562;28;20543;-79
2022/11/12 04:45:03;;;;;;;;;;;4.60;99.90;;;;;;5099192;28;19931;-81
2022/11/12 04:47:49;;;;;;;;;;;4.50;99.90;;;;;;5095584;28;20285;-81
2022/11/12 04:50:35;;;;;;;;;;;4.50;99.90;;;;;;5096159;28;20002;-81
2022/11/12 04:53:22;;;;;;;;;;;4.50;99.90;;;;;;5098739;28;20008;-81
2022/11/12 04:56:07;;;;;;;;;;;4.40;99.90;;;;;;5101313;22;19930;-82
2022/11/12 04:58:52;;;;;;;;;;;4.50;99.90;;;;;;5091518;28;19947;-80
2022/11/12 05:01:37;;;;;;;;;;;4.40;99.90;;;;;;5096094;28;19954;-81
2022/11/12 05:04:26;;;;;;;;;;;4.40;99.90;;;;;;5097096;28;19935;-79
2022/11/12 05:07:12;;;;;;;;;;;4.40;99.90;;;;;;5091308;28;20020;-83
2022/11/12 05:09:58;;;;;;;;;;;4.40;99.90;;;;;;5091786;28;20407;-82
2022/11/12 05:12:44;;;;;;;;;;;4.40;99.90;;;;;;5101274;28;19935;-80
2022/11/12 05:15:29;;;;;;;;;;;4.40;99.90;;;;;;5103548;28;19930;-78
2022/11/12 05:18:15;;;;;;;;;;;4.40;99.90;;;;;;5097228;28;20032;-79
2022/11/12 05:22:03;;;;;;;;;;;4.30;99.90;;;;;;5091586;28;20343;-82
2022/11/12 05:24:06;;;;;;;;;;;4.30;99.90;;;;;;5082694;28;19935;-84
2022/11/12 05:26:53;;;;;;;;;;;4.30;99.90;;;;;;5089156;28;20022;-79
2022/11/12 05:29:38;;;;;;;;;;;4.30;99.90;;;;;;5090634;28;19977;-80
2022/11/12 05:32:25;;;;;;;;;;;4.40;99.90;;;;;;5090716;28;19931;-82
2022/11/12 05:35:11;;;;;;;;;;;4.30;99.90;;;;;;5091223;28;19930;-84
2022/11/12 05:37:56;;;;;;;;;;;4.30;99.90;;;;;;5092101;28;19938;-83
2022/11/12 05:40:44;;;;;;;;;;;4.30;99.90;;;;;;5089563;28;19993;-84
2022/11/12 05:43:30;;;;;;;;;;;4.30;99.90;;;;;;5093704;28;20081;-81
2022/11/12 05:46:17;;;;;;;;;;;4.30;99.90;;;;;;5094893;28;19950;-80
2022/11/12 05:49:02;;;;;;;;;;;4.20;99.90;;;;;;5099341;28;19926;-85
2022/11/12 05:51:50;;;;;;;;;;;4.20;99.90;;;;;;5097179;28;19931;-81
2022/11/12 05:54:35;;;;;;;;;;;4.30;99.90;;;;;;5094991;28;19931;-85
2022/11/12 05:57:20;;;;;;;;;;;4.30;99.90;;;;;;5088347;28;20253;-82
2022/11/12 06:00:08;;;;;;;;;;;4.20;99.90;;;;;;5083545;28;19931;-83
2022/11/12 06:02:56;;;;;;;;;;;4.20;99.90;;;;;;5095253;28;20018;-82
2022/11/12 06:05:43;;;;;;;;;;;4.20;99.90;;;;;;5098919;28;20008;-79
2022/11/12 06:08:29;;;;;;;;;;;4.20;99.90;;;;;;5100005;28;19935;-78
2022/11/12 06:11:14;;;;;;;;;;;4.20;99.90;;;;;;5111315;28;19930;-82
2022/11/12 06:13:59;;;;;;;;;;;4.20;99.90;;;;;;5109890;28;19931;-87
2022/11/12 06:16:43;;;;;;;;;;;4.20;99.90;;;;;;5137298;22;19923;-79
2022/11/12 06:19:29;;;;;;;;;;;4.20;99.90;;;;;;5123864;27;20135;-79
2022/11/12 06:22:15;;;;;;;;;;;4.20;99.90;;;;;;5107096;28;19930;-79
2022/11/12 06:25:00;;;;;;;;;;;4.20;99.90;;;;;;5112144;28;19930;-81
2022/11/12 06:27:46;;;;;;;;;;;4.10;99.90;;;;;;5121797;27;20094;-82
2022/11/12 06:30:31;;;;;;;;;;;4.10;99.90;;;;;;5114336;27;20238;-83
2022/11/12 06:33:18;;;;;;;;;;;4.20;99.90;;;;;;5111339;27;19926;-81
2022/11/12 06:36:05;;;;;;;;;;;4.30;99.90;;;;;;5119646;27;19942;-82
2022/11/12 06:38:50;;;;;;;;;;;4.30;99.90;;;;;;5114776;27;20022;-83
2022/11/12 06:41:35;;;;;;;;;;;4.30;99.90;;;;;;5113512;28;20012;-82
2022/11/12 06:44:20;;;;;;;;;;;4.30;99.90;;;;;;5103283;28;20580;-84
2022/11/12 06:47:06;;;;;;;;;;;4.30;99.90;;;;;;5118161;27;20003;-84
2022/11/12 06:49:54;;;;;;;;;;;4.40;99.90;;;;;;5116161;28;19931;-80
2022/11/12 06:52:39;;;;;;;;;;;4.40;99.90;;;;;;5101898;28;20100;-82
2022/11/12 06:55:25;;;;;;;;;;;4.40;99.90;;;;;;5114564;28;20616;-82
2022/11/12 06:58:11;;;;;;;;;;;4.50;99.90;;;;;;5116357;28;19953;-83
2022/11/12 07:00:57;;;;;;;;;;;4.60;99.90;;;;;;5113747;28;20026;-83
2022/11/12 07:03:43;;;;;;;;;;;4.50;99.90;;;;;;5111922;28;19974;-83
2022/11/12 07:06:30;;;;;;;;;;;4.50;99.90;;;;;;5116038;27;20008;-85
2022/11/12 07:09:15;;;;;;;;;;;4.50;99.90;;;;;;5113110;27;20347;-83
2022/11/12 07:12:02;;;;;;;;;;;4.50;99.90;;;;;;5126648;27;19927;-83
2022/11/12 07:14:47;;;;;;;;;;;4.60;99.90;;;;;;5114175;28;19941;-83
2022/11/12 07:17:32;;;;;;;;;;;4.60;99.90;;;;;;5111177;27;19967;-83
2022/11/12 07:20:18;;;;;;;;;;;4.80;99.90;;;;;;5101069;28;19973;-84
2022/11/12 07:23:04;;;;;;;;;;;5.00;99.90;;;;;;5115044;28;20447;-83
2022/11/12 07:25:55;;;;;;;;;;;5.40;99.90;;;;;;5117202;28;19934;-81
2022/11/12 07:28:42;;;;;;;;;;;5.50;99.90;;;;;;5104739;27;19935;-82
2022/11/12 07:31:28;;;;;;;;;;;5.90;99.90;;;;;;5101841;28;20027;-82
2022/11/12 07:34:14;;;;;;;;;;;6.30;99.90;;;;;;5116349;28;19933;-82
2022/11/12 07:37:01;;;;;;;;;;;6.60;99.90;;;;;;5120351;28;20069;-81
2022/11/12 07:39:48;;;;;;;;;;;6.80;99.90;;;;;;5121014;27;19955;-81
2022/11/12 07:42:34;;;;;;;;;;;7.10;99.90;;;;;;5113376;28;19931;-81
2022/11/12 07:45:20;;;;;;;;;;;7.40;99.90;;;;;;5119572;27;20037;-81
2022/11/12 07:48:06;;;;;;;;;;;7.70;99.90;;;;;;5109674;28;19993;-82
2022/11/12 07:50:51;;;;;;;;;;;8.00;99.90;;;;;;5114861;27;19985;-81
2022/11/12 07:53:37;;;;;;;;;;;8.20;99.90;;;;;;5116732;28;20037;-78
2022/11/12 07:56:24;;;;;;;;;;;8.40;99.90;;;;;;5115768;28;19930;-80
2022/11/12 07:59:23;;;;;;;;;;;8.50;99.90;;;;;;5107025;28;19992;-80
2022/11/12 08:02:09;;;;;;;;;;;9.00;99.90;;;;;;5107866;27;20042;-77
2022/11/12 08:04:55;;;;;;;;;;;9.30;99.90;;;;;;5099593;28;19976;-79
2022/11/12 08:07:41;;;;;;;;;;;9.30;99.90;;;;;;5107188;27;20028;-79
2022/11/12 08:10:26;;;;;;;;;;;9.60;99.90;;;;;;5103674;28;19931;-77
2022/11/12 08:13:13;;;;;;;;;;;9.80;99.90;;;;;;5103254;28;19949;-80
2022/11/12 08:15:59;;;;;;;;;;;9.90;99.90;;;;;;5107195;28;20089;-81
2022/11/12 08:18:46;;;;;;;;;;;9.90;99.90;;;;;;5102051;28;20422;-82
2022/11/12 08:21:31;;;;;;;;;;;9.70;99.90;;;;;;5100324;28;19934;-80
2022/11/12 08:24:17;;;;;;;;;;;10.10;99.90;;;;;;5113632;28;19981;-81
2022/11/12 08:27:02;;;;;;;;;;;10.20;99.90;;;;;;5111472;27;19930;-81
2022/11/12 08:29:49;;;;;;;;;;;10.20;99.90;;;;;;5106732;28;20080;-81
2022/11/12 08:32:35;;;;;;;;;;;10.30;99.90;;;;;;5104773;27;19931;-80
2022/11/12 08:35:20;;;;;;;;;;;10.40;99.90;;;;;;5100911;28;19950;-79
2022/11/12 08:38:06;;;;;;;;;;;10.40;99.90;;;;;;5088702;28;20662;-79
2022/11/12 08:40:52;;;;;;;;;;;10.40;99.90;;;;;;5110674;27;19926;-79
2022/11/12 08:43:37;;;;;;;;;;;10.30;99.90;;;;;;5102020;28;19976;-80
2022/11/12 08:46:24;;;;;;;;;;;10.20;99.90;;;;;;5106790;27;19933;-79
2022/11/12 08:49:10;;;;;;;;;;;10.20;99.90;;;;;;5104810;28;20337;-79
2022/11/12 08:51:56;;;;;;;;;;;10.20;99.90;;;;;;5103795;28;19930;-79
2022/11/12 08:54:41;;;;;;;;;;;10.20;99.90;;;;;;5111174;27;20025;-79
2022/11/12 08:57:27;;;;;;;;;;;10.20;99.90;;;;;;5099006;28;19954;-79
2022/11/12 09:00:13;;;;;;;;;;;10.30;99.90;;;;;;5108912;27;19930;-79
2022/11/12 09:03:01;;;;;;;;;;;11.90;99.90;;;;;;5106575;28;20037;-80
2022/11/12 09:05:47;;;;;;;;;;;10.60;99.90;;;;;;5106802;28;19930;-79
2022/11/12 09:08:33;;;;;;;;;;;10.70;99.90;;;;;;5115009;28;19942;-79
2022/11/12 09:11:19;;;;;;;;;;;10.90;99.90;;;;;;5100965;28;19989;-79
2022/11/12 09:14:04;;;;;;;;;;;11.10;99.90;;;;;;5106082;28;19934;-79
2022/11/12 09:16:50;;;;;;;;;;;11.20;99.90;;;;;;5111819;28;19935;-80
2022/11/12 09:19:36;;;;;;;;;;;11.40;99.90;;;;;;5111694;28;19930;-79
2022/11/12 09:22:22;;;;;;;;;;;11.60;99.90;;;;;;5115909;27;19987;-80
2022/11/12 09:25:08;;;;;;;;;;;11.80;99.90;;;;;;5115463;28;19946;-80
2022/11/12 09:27:53;;;;;;;;;;;11.90;99.90;;;;;;5122082;27;19934;-81
2022/11/12 09:30:45;;;;;;;;;;;12.30;99.90;;;;;;5113462;27;19927;-81
2022/11/12 09:33:32;;;;;;;;;;;12.30;99.90;;;;;;5110172;27;19935;-81
2022/11/12 09:36:19;;;;;;;;;;;12.50;99.90;;;;;;5111405;28;20096;-80
2022/11/12 09:39:05;;;;;;;;;;;12.70;99.90;;;;;;5105614;27;20331;-80
2022/11/12 09:41:51;;;;;;;;;;;12.80;99.90;;;;;;5107395;27;19939;-80
2022/11/12 09:44:37;;;;;;;;;;;13.00;99.90;;;;;;5116267;27;19931;-81
2022/11/12 09:47:27;;;;;;;;;;;13.20;99.90;;;;;;5114721;27;19930;-80
2022/11/12 09:50:17;;;;;;;;;;;13.40;99.90;;;;;;5110586;27;19931;-80
2022/11/12 09:53:07;;;;;;;;;;;13.60;99.90;;;;;;5116524;28;20011;-79
2022/11/12 09:55:53;;;;;;;;;;;13.80;99.90;;;;;;5116173;28;19933;-79
2022/11/12 09:58:39;;;;;;;;;;;13.90;99.90;;;;;;5115323;28;19927;-79
2022/11/12 10:01:36;;;;;;;;;;;14.10;99.90;;;;;;5102729;28;19931;-82
2022/11/12 10:04:28;;;;;;;;;;;14.40;99.90;;;;;;5116945;28;19934;-81
2022/11/12 10:07:19;;;;;;;;;;;14.60;99.90;;;;;;5109589;28;19981;-80
2022/11/12 10:10:10;;;;;;;;;;;14.70;99.90;;;;;;5110820;28;19951;-79
2022/11/12 10:13:06;;;;;;;;;;;14.80;99.90;;;;;;5102496;28;20302;-81
2022/11/12 10:19:19;;;;;;;;;;;15.10;99.90;;;;;;5124750;27;20491;-81
2022/11/12 10:22:15;;;;;;;;;;;15.30;99.90;;;;;;5115077;28;19935;-81
2022/11/12 10:25:10;;;;;;;;;;;15.50;99.90;;;;;;5203171;22;19987;-82
2022/11/12 10:27:56;;;;;;;;;;;15.50;99.90;;;;;;5097075;28;19927;-80
2022/11/12 10:30:43;;;;;;;;;;;15.60;99.90;;;;;;5091350;28;20121;-80
2022/11/12 10:33:30;;;;;;;;;;;15.60;99.90;;;;;;5094288;28;19930;-81
2022/11/12 10:36:20;;;;;;;;;;;15.70;99.90;;;;;;5089367;28;19927;-80
2022/11/12 10:39:05;;;;;;;;;;;15.70;99.90;;;;;;5086438;28;19935;-82
2022/11/12 10:42:01;;;;;;;;;;;15.80;99.90;;;;;;5092129;28;19935;-79
2022/11/12 10:44:48;;;;;;;;;;;15.90;99.90;;;;;;5088183;28;19977;-81
2022/11/12 10:47:37;;;;;;;;;;;16.00;99.90;;;;;;5094752;28;20028;-80
2022/11/12 10:50:25;;;;;;;;;;;16.00;99.90;;;;;;5093008;28;20307;-79
2022/11/12 10:53:11;;;;;;;;;;;16.00;99.90;;;;;;5084535;28;19986;-80
2022/11/12 10:55:58;;;;;;;;;;;16.20;99.90;;;;;;5096187;28;19973;-81
2022/11/12 10:58:45;;;;;;;;;;;16.30;99.90;;;;;;5093137;28;19930;-81
2022/11/12 11:01:33;;;;;;;;;;;16.40;99.90;;;;;;5095690;28;19973;-80
2022/11/12 11:04:27;;;;;;;;;;;16.50;99.90;;;;;;5095035;28;19927;-79
2022/11/12 11:07:20;;;;;;;;;;;16.50;99.90;;;;;;5093834;28;19934;-82
2022/11/12 11:10:22;;;;;;;;;;;16.50;99.90;;;;;;5093172;28;20013;-80
2022/11/12 11:13:17;;;;;;;;;;;16.50;99.90;;;;;;5094789;28;20367;-79
2022/11/12 11:16:04;;;;;;;;;;;16.50;99.90;;;;;;5097126;28;20013;-81
2022/11/12 11:18:52;;;;;;;;;;;16.60;99.90;;;;;;5092087;28;19927;-82
2022/11/12 11:21:47;;;;;;;;;;;16.60;99.90;;;;;;5090326;28;19958;-80
2022/11/12 11:24:36;;;;;;;;;;;16.70;99.90;;;;;;5096358;28;20446;-79
2022/11/12 11:27:29;;;;;;;;;;;16.80;99.90;;;;;;5092441;28;20285;-82
2022/11/12 11:30:16;;;;;;;;;;;17.00;99.90;;;;;;5095723;28;19927;-81
2022/11/12 11:33:20;;;;;;;;;;;17.00;99.90;;;;;;5096622;28;19949;-82
2022/11/12 11:36:13;;;;;;;;;;;17.00;99.90;;;;;;5087058;28;20048;-82
2022/11/12 11:39:02;;;;;;;;;;;17.20;99.90;;;;;;5093499;28;19947;-81
2022/11/12 11:41:53;;;;;;;;;;;17.30;99.90;;;;;;5095374;28;20022;-80
2022/11/12 11:44:46;;;;;;;;;;;17.40;99.90;;;;;;5078940;28;19935;-80
2022/11/12 11:47:37;;;;;;;;;;;17.50;99.90;;;;;;5088684;28;20030;-81
2022/11/12 11:50:27;;;;;;;;;;;17.60;99.90;;;;;;5099221;28;19936;-81
2022/11/12 11:53:21;;;;;;;;;;;17.50;99.90;;;;;;5091886;28;20022;-83
2022/11/12 11:56:09;;;;;;;;;;;17.70;99.90;;;;;;5087457;28;20071;-82
2022/11/12 11:59:01;;;;;;;;;;;17.80;99.90;;;;;;5094849;28;19931;-81
2022/11/12 12:01:56;;;;;;;;;;;17.90;99.90;;;;;;5089967;28;19954;-80
2022/11/12 12:04:47;;;;;;;;;;;18.10;99.90;;;;;;5092184;28;20061;-80
2022/11/12 12:07:37;;;;;;;;;;;18.30;99.90;;;;;;5088846;28;19931;-81
2022/11/12 12:10:25;;;;;;;;;;;18.30;99.90;;;;;;5091902;28;19934;-79
2022/11/12 12:13:14;;;;;;;;;;;18.60;99.90;;;;;;5080193;28;19951;-80
2022/11/12 12:16:09;;;;;;;;;;;18.70;99.90;;;;;;5087663;28;19939;-79
2022/11/12 12:19:00;;;;;;;;;;;18.80;99.90;;;;;;5086827;28;19931;-79
2022/11/12 12:21:50;;;;;;;;;;;19.00;99.90;;;;;;5187779;22;19927;-81
2022/11/12 12:24:40;;;;;;;;;;;19.00;99.90;;;;;;5102813;28;19931;-81
2022/11/12 12:27:30;;;;;;;;;;;18.90;99.90;;;;;;5082983;28;19930;-81
2022/11/12 12:30:18;;;;;;;;;;;18.90;99.90;;;;;;5075493;28;19982;-81
2022/11/12 12:33:10;;;;;;;;;;;18.80;99.90;;;;;;5073104;28;19927;-80
2022/11/12 12:35:58;;;;;;;;;;;18.80;99.90;;;;;;5080134;28;19930;-81
2022/11/12 12:38:44;;;;;;;;;;;18.80;99.90;;;;;;5081880;28;19930;-81
2022/11/12 12:41:32;;;;;;;;;;;18.70;99.90;;;;;;5089455;28;19978;-80
2022/11/12 12:44:19;;;;;;;;;;;18.70;99.90;;;;;;5086266;28;20012;-81
2022/11/12 12:47:05;;;;;;;;;;;18.70;99.90;;;;;;5085439;28;20057;-82
2022/11/12 12:49:50;;;;;;;;;;;18.70;99.90;;;;;;5081607;28;19946;-81
2022/11/12 12:52:54;;;;;;;;;;;18.60;99.90;;;;;;5083321;28;20492;-82
2022/11/12 12:55:41;;;;;;;;;;;18.60;99.90;;;;;;5079452;28;19935;-81
2022/11/12 12:58:28;;;;;;;;;;;18.60;99.90;;;;;;5077647;28;19930;-81
2022/11/12 13:01:27;;;;;;;;;;;18.60;99.90;;;;;;5079905;28;19950;-83
2022/11/12 13:04:12;;;;;;;;;;;18.60;99.90;;;;;;5076510;28;20153;-82
2022/11/12 13:06:59;;;;;;;;;;;18.60;99.90;;;;;;5080200;28;20341;-82
2022/11/12 13:09:44;;;;;;;;;;;18.60;99.90;;;;;;5075326;28;19927;-82
2022/11/12 13:12:49;;;;;;;;;;;18.60;99.90;;;;;;5083538;28;19997;-81
2022/11/12 13:15:41;;;;;;;;;;;18.60;99.90;;;;;;5074055;28;19947;-81
2022/11/12 13:18:45;;;;;;;;;;;18.60;99.90;;;;;;5081799;28;20023;-81
2022/11/12 13:21:32;;;;;;;;;;;18.70;99.90;;;;;;5082951;28;19934;-80
2022/11/12 13:24:17;;;;;;;;;;;18.70;99.90;;;;;;5075195;28;19981;-81
2022/11/12 13:27:03;;;;;;;;;;;18.70;99.90;;;;;;5088320;28;19931;-82
2022/11/12 13:29:49;;;;;;;;;;;18.80;99.90;;;;;;5084301;28;20113;-82
2022/11/12 13:32:40;;;;;;;;;;;18.70;99.90;;;;;;5076798;28;19947;-81
2022/11/12 13:35:30;;;;;;;;;;;18.70;99.90;;;;;;5080577;28;19931;-81
2022/11/12 13:38:18;;;;;;;;;;;18.70;99.90;;;;;;5076069;28;19927;-81
2022/11/12 13:41:07;;;;;;;;;;;18.60;99.90;;;;;;5082815;28;20105;-81
2022/11/12 13:43:53;;;;;;;;;;;18.50;99.90;;;;;;5085251;28;19931;-80
2022/11/12 13:46:38;;;;;;;;;;;18.60;99.90;;;;;;5082735;28;19943;-81
2022/11/12 13:49:24;;;;;;;;;;;18.50;99.90;;;;;;5080630;28;19977;-81
2022/11/12 13:52:13;;;;;;;;;;;18.40;99.90;;;;;;5091213;28;20219;-81
2022/11/12 13:55:06;;;;;;;;;;;18.40;99.90;;;;;;5074616;28;19978;-80
2022/11/12 13:57:53;;;;;;;;;;;18.40;99.90;;;;;;5080063;28;20410;-80
2022/11/12 14:00:39;;;;;;;;;;;18.40;99.90;;;;;;5074756;28;19943;-81
2022/11/12 14:03:27;;;;;;;;;;;18.40;99.90;;;;;;5074696;28;20482;-78
2022/11/12 14:06:16;;;;;;;;;;;18.30;99.90;;;;;;5085646;28;20090;-81
2022/11/12 14:09:08;;;;;;;;;;;18.20;99.90;;;;;;5088764;28;19931;-80
2022/11/12 14:12:07;;;;;;;;;;;18.10;99.90;;;;;;5089032;28;19932;-81
2022/11/12 14:15:02;;;;;;;;;;;18.00;99.90;;;;;;5087238;28;19946;-81
2022/11/12 14:17:53;;;;;;;;;;;17.80;99.90;;;;;;5082249;28;19932;-80
2022/11/12 14:20:39;;;;;;;;;;;17.70;99.90;;;;;;5080057;28;19931;-80
2022/11/12 14:23:25;;;;;;;;;;;17.50;99.90;;;;;;5101777;28;19961;-80
2022/11/12 14:26:14;;;;;;;;;;;17.50;99.90;;;;;;5089231;28;20084;-80
2022/11/12 14:29:01;;;;;;;;;;;17.40;99.90;;;;;;5083918;28;20024;-78
2022/11/12 14:31:47;;;;;;;;;;;17.30;99.90;;;;;;5086098;28;19995;-79
2022/11/12 14:34:33;;;;;;;;;;;17.20;99.90;;;;;;5085082;28;19957;-79
2022/11/12 14:37:30;;;;;;;;;;;17.00;99.90;;;;;;5082326;28;19950;-80
2022/11/12 14:40:18;;;;;;;;;;;16.90;99.90;;;;;;5086465;28;19934;-79
2022/11/12 14:43:04;;;;;;;;;;;16.90;99.90;;;;;;5079923;28;20378;-79
2022/11/12 14:45:54;;;;;;;;;;;16.70;99.90;;;;;;5089044;28;19930;-78
2022/11/12 14:48:46;;;;;;;;;;;16.60;99.90;;;;;;5082502;28;19932;-78
2022/11/12 14:51:43;;;;;;;;;;;16.50;99.90;;;;;;5079735;28;19930;-79
2022/11/12 14:54:29;;;;;;;;;;;16.40;99.90;;;;;;5086327;28;20004;-79
2022/11/12 14:57:18;;;;;;;;;;;16.30;99.90;;;;;;5079252;28;20303;-80
2022/11/12 15:00:22;;;;;;;;;;;16.20;99.90;;;;;;5089139;28;20015;-80
2022/11/12 15:03:12;;;;;;;;;;;16.00;99.90;;;;;;5083476;28;19984;-80
2022/11/12 15:06:00;;;;;;;;;;;15.90;99.90;;;;;;5087116;28;20318;-80
2022/11/12 15:08:55;;;;;;;;;;;15.90;99.90;;;;;;5087569;28;19931;-80
2022/11/12 15:11:43;;;;;;;;;;;15.80;99.90;;;;;;5080617;28;19931;-79
2022/11/12 15:14:29;;;;;;;;;;;14.50;99.90;;;;;;5077906;28;19934;-80
2022/11/12 15:17:27;;;;;;;;;;;15.50;99.90;;;;;;5076213;28;19950;-80
2022/11/12 15:20:15;;;;;;;;;;;15.40;99.90;;;;;;5082189;28;19989;-80
2022/11/12 15:23:01;;;;;;;;;;;15.20;99.90;;;;;;5094538;28;19954;-80
2022/11/12 15:25:57;;;;;;;;;;;15.00;99.90;;;;;;5090454;28;19935;-79
2022/11/12 15:28:57;;;;;;;;;;;14.90;99.90;;;;;;5074576;28;19947;-76
2022/11/12 15:31:43;;;;;;;;;;;14.70;99.90;;;;;;5083363;28;20061;-77
2022/11/12 15:34:33;;;;;;;;;;;14.50;99.90;;;;;;5082523;28;20005;-76
2022/11/12 15:37:22;;;;;;;;;;;14.30;99.90;;;;;;5082280;28;19969;-76
2022/11/12 15:40:11;;;;;;;;;;;14.20;99.90;;;;;;5076711;28;20658;-76
2022/11/12 15:42:58;;;;;;;;;;;14.00;99.90;;;;;;5080690;28;19927;-76
2022/11/12 15:45:43;;;;;;;;;;;13.80;99.90;;;;;;5080342;28;20746;-76
2022/11/12 15:48:34;;;;;;;;;;;13.60;99.90;;;;;;5078534;28;19994;-77
2022/11/12 15:51:21;;;;;;;;;;;13.40;99.90;;;;;;5076970;28;19930;-76
2022/11/12 15:54:07;;;;;;;;;;;13.30;99.90;;;;;;5069945;28;19962;-76
2022/11/12 15:56:53;;;;;;;;;;;13.20;99.90;;;;;;5080045;28;19965;-76
2022/11/12 15:59:38;;;;;;;;;;;13.00;99.90;;;;;;5081240;28;19942;-76
2022/11/12 16:02:24;;;;;;;;;;;13.00;99.90;;;;;;5085205;28;19961;-77
2022/11/12 16:05:12;;;;;;;;;;;12.70;99.90;;;;;;5091531;28;19946;-76
2022/11/12 16:07:58;;;;;;;;;;;12.60;99.90;;;;;;5074780;28;20049;-77
2022/11/12 16:10:46;;;;;;;;;;;12.40;99.90;;;;;;5085530;28;20402;-77
2022/11/12 16:13:33;;;;;;;;;;;12.40;99.90;;;;;;5073316;28;19939;-76
2022/11/12 16:16:19;;;;;;;;;;;12.30;99.90;;;;;;5076131;28;19926;-77
2022/11/12 16:19:04;;;;;;;;;;;12.20;99.90;;;;;;5074097;28;19927;-77
2022/11/12 16:21:50;;;;;;;;;;;12.00;99.90;;;;;;5081138;28;20469;-76
2022/11/12 16:24:35;;;;;;;;;;;12.00;99.90;;;;;;5090973;28;20038;-77
2022/11/12 16:27:22;;;;;;;;;;;11.90;99.90;;;;;;5078764;28;19931;-76
2022/11/12 16:30:13;;;;;;;;;;;11.80;99.90;;;;;;5071853;28;20105;-77
2022/11/12 16:33:00;;;;;;;;;;;11.60;99.90;;;;;;5072992;28;20398;-77
2022/11/12 16:35:45;;;;;;;;;;;11.50;99.90;;;;;;5071764;28;20290;-77
2022/11/12 16:38:31;;;;;;;;;;;11.40;99.90;;;;;;5082159;28;19931;-77
2022/11/12 16:41:16;;;;;;;;;;;11.30;99.90;;;;;;5089975;28;19962;-77
2022/11/12 16:44:03;;;;;;;;;;;11.20;99.90;;;;;;5068090;28;19935;-77
2022/11/12 16:46:49;;;;;;;;;;;11.10;99.90;;;;;;5077835;28;20303;-77
2022/11/12 16:49:35;;;;;;;;;;;12.40;99.90;;;;;;5077566;28;19935;-77